createdAt,value
2017-04-13T00:00:08.044Z,11.51
2017-04-13T00:00:34.127Z,11.54
2017-04-13T00:01:00.208Z,11.44
2017-04-13T00:01:26.291Z,11.52
2017-04-13T00:01:52.372Z,11.48
2017-04-13T00:02:18.455Z,11.47
2017-04-13T00:02:44.538Z,11.48
2017-04-13T00:03:10.641Z,11.5
2017-04-13T00:03:36.745Z,11.37
2017-04-13T00:04:02.852Z,11.43
2017-04-13T00:04:28.934Z,11.36
2017-04-13T00:04:55.016Z,11.45
2017-04-13T00:05:21.100Z,11.41
2017-04-13T00:05:47.176Z,11.41
2017-04-13T00:06:13.260Z,11.43
2017-04-13T00:06:39.366Z,11.43
2017-04-13T00:07:05.449Z,11.4
2017-04-13T00:07:31.529Z,11.41
2017-04-13T00:07:57.656Z,11.44
2017-04-13T00:08:23.739Z,11.47
2017-04-13T00:08:49.867Z,11.45
2017-04-13T00:09:15.948Z,11.44
2017-04-13T00:09:42.075Z,11.52
2017-04-13T00:10:08.158Z,11.59
2017-04-13T00:10:34.238Z,11.47
2017-04-13T00:11:00.323Z,11.52
2017-04-13T00:11:26.406Z,11.51
2017-04-13T00:11:52.487Z,11.57
2017-04-13T00:12:18.568Z,11.5
2017-04-13T00:12:44.694Z,11.54
2017-04-13T00:13:10.773Z,11.51
2017-04-13T00:13:36.879Z,11.6
2017-04-13T00:14:02.960Z,11.54
2017-04-13T00:14:29.088Z,11.63
2017-04-13T00:14:55.194Z,11.51
2017-04-13T00:15:21.276Z,11.55
2017-04-13T00:15:47.358Z,11.45
2017-04-13T00:16:13.587Z,11.51
2017-04-13T00:16:39.669Z,11.47
2017-04-13T00:17:05.779Z,11.43
2017-04-13T00:17:31.881Z,11.37
2017-04-13T00:17:57.998Z,11.4
2017-04-13T00:18:24.082Z,11.41
2017-04-13T00:18:50.168Z,11.47
2017-04-13T00:19:16.298Z,11.43
2017-04-13T00:19:42.381Z,11.5
2017-04-13T00:20:08.489Z,11.45
2017-04-13T00:20:34.590Z,11.51
2017-04-13T00:21:00.798Z,11.55
2017-04-13T00:21:26.904Z,11.47
2017-04-13T00:21:53.448Z,11.5
2017-04-13T00:22:19.576Z,11.5
2017-04-13T00:22:45.656Z,11.37
2017-04-13T00:23:11.740Z,11.5
2017-04-13T00:23:37.822Z,11.45
2017-04-13T00:24:04.364Z,11.48
2017-04-13T00:24:30.472Z,11.44
2017-04-13T00:24:56.578Z,11.44
2017-04-13T00:25:22.661Z,11.4
2017-04-13T00:25:48.790Z,11.5
2017-04-13T00:26:14.872Z,11.47
2017-04-13T00:26:40.977Z,11.47
2017-04-13T00:27:07.083Z,11.54
2017-04-13T00:27:33.234Z,11.55
2017-04-13T00:27:59.384Z,11.48
2017-04-13T00:28:25.488Z,11.47
2017-04-13T00:28:51.614Z,11.45
2017-04-13T00:29:17.721Z,11.48
2017-04-13T00:29:43.824Z,11.48
2017-04-13T00:30:09.926Z,11.47
2017-04-13T00:30:36.019Z,11.48
2017-04-13T00:31:02.119Z,11.47
2017-04-13T00:31:28.226Z,11.47
2017-04-13T00:31:54.361Z,11.47
2017-04-13T00:32:20.489Z,11.44
2017-04-13T00:32:46.617Z,11.5
2017-04-13T00:33:12.723Z,11.44
2017-04-13T00:33:38.877Z,11.41
2017-04-13T00:34:04.983Z,11.44
2017-04-13T00:34:31.086Z,11.44
2017-04-13T00:34:57.190Z,11.43
2017-04-13T00:35:23.271Z,11.5
2017-04-13T00:35:49.354Z,11.48
2017-04-13T00:36:15.437Z,11.48
2017-04-13T00:36:41.518Z,11.47
2017-04-13T00:37:07.599Z,11.48
2017-04-13T00:37:33.682Z,11.52
2017-04-13T00:37:59.765Z,11.55
2017-04-13T00:38:25.849Z,11.48
2017-04-13T00:38:51.951Z,11.5
2017-04-13T00:39:18.079Z,11.51
2017-04-13T00:39:44.184Z,11.54
2017-04-13T00:40:10.369Z,11.48
2017-04-13T00:40:36.474Z,11.47
2017-04-13T00:41:02.618Z,11.43
2017-04-13T00:41:28.827Z,11.63
2017-04-13T00:41:54.958Z,11.54
2017-04-13T00:42:21.064Z,11.57
2017-04-13T00:42:47.169Z,11.5
2017-04-13T00:43:13.277Z,11.5
2017-04-13T00:43:39.404Z,11.51
2017-04-13T00:44:05.529Z,11.55
2017-04-13T00:44:31.611Z,11.5
2017-04-13T00:44:57.692Z,11.5
2017-04-13T00:45:23.799Z,11.5
2017-04-13T00:45:49.883Z,11.48
2017-04-13T00:46:15.964Z,11.6
2017-04-13T00:46:42.046Z,11.5
2017-04-13T00:47:08.174Z,11.6
2017-04-13T00:47:34.259Z,11.6
2017-04-13T00:48:00.410Z,11.5
2017-04-13T00:48:26.563Z,11.54
2017-04-13T00:48:52.671Z,11.6
2017-04-13T00:49:18.755Z,11.54
2017-04-13T00:49:44.861Z,11.51
2017-04-13T00:50:10.944Z,11.52
2017-04-13T00:50:37.026Z,11.54
2017-04-13T00:51:03.107Z,11.51
2017-04-13T00:51:29.189Z,11.5
2017-04-13T00:51:55.320Z,11.54
2017-04-13T00:52:21.402Z,11.57
2017-04-13T00:52:47.581Z,11.54
2017-04-13T00:53:13.685Z,11.54
2017-04-13T00:53:39.767Z,11.63
2017-04-13T00:54:05.972Z,11.68
2017-04-13T00:54:32.056Z,11.63
2017-04-13T00:54:58.183Z,11.68
2017-04-13T00:55:24.289Z,11.7
2017-04-13T00:55:50.366Z,11.75
2017-04-13T00:56:16.449Z,11.63
2017-04-13T00:56:42.531Z,11.66
2017-04-13T00:57:08.614Z,11.69
2017-04-13T00:57:34.696Z,11.57
2017-04-13T00:58:00.800Z,11.57
2017-04-13T00:58:26.934Z,11.62
2017-04-13T00:58:53.015Z,11.59
2017-04-13T00:59:19.142Z,11.68
2017-04-13T00:59:45.249Z,11.63
2017-04-13T01:00:11.333Z,11.57
2017-04-13T01:00:37.415Z,11.65
2017-04-13T01:01:03.517Z,11.66
2017-04-13T01:01:29.598Z,11.68
2017-04-13T01:01:55.685Z,11.62
2017-04-13T01:02:21.769Z,11.6
2017-04-13T01:02:47.852Z,11.59
2017-04-13T01:03:13.934Z,11.63
2017-04-13T01:03:40.038Z,11.6
2017-04-13T01:04:06.121Z,11.69
2017-04-13T01:04:32.207Z,11.68
2017-04-13T01:04:58.291Z,11.63
2017-04-13T01:05:24.374Z,11.6
2017-04-13T01:05:50.481Z,11.7
2017-04-13T01:06:16.585Z,11.65
2017-04-13T01:06:42.667Z,11.73
2017-04-13T01:07:08.772Z,11.69
2017-04-13T01:07:34.856Z,11.62
2017-04-13T01:08:00.937Z,11.72
2017-04-13T01:08:27.017Z,11.69
2017-04-13T01:08:53.100Z,11.65
2017-04-13T01:09:19.207Z,11.65
2017-04-13T01:09:45.286Z,11.75
2017-04-13T01:10:11.391Z,11.68
2017-04-13T01:10:37.470Z,11.75
2017-04-13T01:11:03.576Z,11.7
2017-04-13T01:11:29.660Z,11.77
2017-04-13T01:11:55.767Z,11.7
2017-04-13T01:12:21.884Z,11.72
2017-04-13T01:12:47.982Z,11.75
2017-04-13T01:13:14.063Z,11.72
2017-04-13T01:13:40.146Z,11.7
2017-04-13T01:14:06.230Z,11.77
2017-04-13T01:14:32.313Z,11.73
2017-04-13T01:14:58.394Z,11.66
2017-04-13T01:15:24.473Z,11.69
2017-04-13T01:15:50.557Z,11.68
2017-04-13T01:16:16.639Z,11.65
2017-04-13T01:16:42.721Z,11.57
2017-04-13T01:17:08.802Z,11.6
2017-04-13T01:17:34.886Z,11.54
2017-04-13T01:18:00.969Z,11.6
2017-04-13T01:18:27.052Z,11.62
2017-04-13T01:18:53.131Z,11.63
2017-04-13T01:19:19.235Z,11.59
2017-04-13T01:19:45.317Z,11.66
2017-04-13T01:20:11.401Z,11.63
2017-04-13T01:20:37.506Z,11.66
2017-04-13T01:21:03.607Z,11.59
2017-04-13T01:21:29.713Z,11.57
2017-04-13T01:21:55.795Z,11.59
2017-04-13T01:22:21.900Z,11.54
2017-04-13T01:22:48.004Z,11.62
2017-04-13T01:23:14.086Z,11.6
2017-04-13T01:23:40.343Z,11.6
2017-04-13T01:24:06.472Z,11.62
2017-04-13T01:24:32.596Z,11.55
2017-04-13T01:24:58.700Z,11.59
2017-04-13T01:25:24.783Z,11.55
2017-04-13T01:25:50.866Z,11.63
2017-04-13T01:26:16.945Z,11.55
2017-04-13T01:26:43.029Z,11.55
2017-04-13T01:27:09.113Z,11.6
2017-04-13T01:27:35.195Z,11.57
2017-04-13T01:28:01.278Z,11.52
2017-04-13T01:28:27.407Z,11.6
2017-04-13T01:28:53.511Z,11.6
2017-04-13T01:29:19.639Z,11.68
2017-04-13T01:29:45.724Z,11.54
2017-04-13T01:30:11.852Z,11.66
2017-04-13T01:30:37.985Z,11.68
2017-04-13T01:31:04.067Z,11.6
2017-04-13T01:31:30.145Z,11.62
2017-04-13T01:31:56.229Z,11.59
2017-04-13T01:32:22.353Z,11.59
2017-04-13T01:32:48.459Z,11.66
2017-04-13T01:33:14.590Z,11.69
2017-04-13T01:33:40.696Z,11.6
2017-04-13T01:34:06.801Z,11.47
2017-04-13T01:34:32.906Z,11.54
2017-04-13T01:34:59.006Z,11.59
2017-04-13T01:35:25.087Z,11.51
2017-04-13T01:35:51.169Z,11.54
2017-04-13T01:36:17.275Z,11.44
2017-04-13T01:36:43.355Z,11.5
2017-04-13T01:37:09.436Z,11.59
2017-04-13T01:37:35.566Z,11.51
2017-04-13T01:38:01.673Z,11.51
2017-04-13T01:38:27.752Z,11.5
2017-04-13T01:38:53.880Z,11.66
2017-04-13T01:39:19.980Z,11.51
2017-04-13T01:39:46.127Z,11.54
2017-04-13T01:40:12.256Z,11.55
2017-04-13T01:40:38.359Z,11.66
2017-04-13T01:41:04.441Z,11.47
2017-04-13T01:41:30.523Z,11.47
2017-04-13T01:41:56.630Z,11.47
2017-04-13T01:42:22.734Z,11.5
2017-04-13T01:42:48.817Z,11.44
2017-04-13T01:43:14.919Z,11.51
2017-04-13T01:43:41.000Z,11.51
2017-04-13T01:44:07.083Z,11.5
2017-04-13T01:44:33.215Z,11.51
2017-04-13T01:44:59.296Z,11.54
2017-04-13T01:45:25.378Z,11.62
2017-04-13T01:45:51.455Z,11.63
2017-04-13T01:46:17.539Z,11.6
2017-04-13T01:46:43.623Z,11.59
2017-04-13T01:47:09.706Z,11.57
2017-04-13T01:47:35.809Z,11.63
2017-04-13T01:48:01.890Z,11.6
2017-04-13T01:48:27.978Z,11.47
2017-04-13T01:48:54.060Z,11.47
2017-04-13T01:49:20.168Z,11.55
2017-04-13T01:49:46.269Z,11.65
2017-04-13T01:50:12.372Z,11.51
2017-04-13T01:50:38.453Z,11.54
2017-04-13T01:51:04.560Z,11.52
2017-04-13T01:51:30.643Z,11.51
2017-04-13T01:51:56.727Z,11.6
2017-04-13T01:52:22.853Z,11.5
2017-04-13T01:52:48.934Z,11.51
2017-04-13T01:53:15.086Z,11.54
2017-04-13T01:53:41.216Z,11.55
2017-04-13T01:54:07.296Z,11.48
2017-04-13T01:54:33.428Z,11.59
2017-04-13T01:54:59.555Z,11.5
2017-04-13T01:55:25.634Z,11.44
2017-04-13T01:55:51.742Z,11.41
2017-04-13T01:56:17.821Z,11.5
2017-04-13T01:56:43.902Z,11.47
2017-04-13T01:57:09.986Z,11.5
2017-04-13T01:57:36.118Z,11.47
2017-04-13T01:58:02.269Z,11.5
2017-04-13T01:58:28.378Z,11.52
2017-04-13T01:58:54.465Z,11.59
2017-04-13T01:59:20.562Z,11.48
2017-04-13T01:59:46.670Z,11.6
2017-04-13T02:00:12.795Z,11.5
2017-04-13T02:00:38.877Z,11.55
2017-04-13T02:01:04.964Z,11.48
2017-04-13T02:01:31.042Z,11.47
2017-04-13T02:01:57.124Z,11.57
2017-04-13T02:02:23.208Z,11.48
2017-04-13T02:02:49.287Z,11.57
2017-04-13T02:03:15.370Z,11.57
2017-04-13T02:03:41.457Z,11.51
2017-04-13T02:04:07.584Z,11.5
2017-04-13T02:04:33.665Z,11.5
2017-04-13T02:04:59.748Z,11.47
2017-04-13T02:05:26.005Z,11.57
2017-04-13T02:05:52.112Z,11.48
2017-04-13T02:06:18.194Z,11.47
2017-04-13T02:06:44.302Z,11.44
2017-04-13T02:07:10.408Z,11.35
2017-04-13T02:07:36.490Z,11.52
2017-04-13T02:08:02.593Z,11.45
2017-04-13T02:08:28.677Z,11.4
2017-04-13T02:08:54.804Z,11.37
2017-04-13T02:09:20.908Z,11.37
2017-04-13T02:09:46.987Z,11.32
2017-04-13T02:10:13.072Z,11.3
2017-04-13T02:10:39.153Z,11.36
2017-04-13T02:11:05.255Z,11.32
2017-04-13T02:11:31.358Z,11.3
2017-04-13T02:11:57.462Z,11.27
2017-04-13T02:12:23.593Z,11.26
2017-04-13T02:12:49.724Z,11.3
2017-04-13T02:13:15.883Z,11.36
2017-04-13T02:13:41.959Z,11.3
2017-04-13T02:14:08.043Z,11.23
2017-04-13T02:14:34.146Z,11.3
2017-04-13T02:15:00.298Z,11.25
2017-04-13T02:15:26.379Z,11.27
2017-04-13T02:15:52.481Z,11.23
2017-04-13T02:16:18.586Z,11.22
2017-04-13T02:16:44.716Z,11.18
2017-04-13T02:17:10.822Z,11.25
2017-04-13T02:17:36.906Z,11.25
2017-04-13T02:18:03.014Z,11.18
2017-04-13T02:18:29.143Z,11.19
2017-04-13T02:18:55.249Z,11.25
2017-04-13T02:19:21.357Z,11.23
2017-04-13T02:19:47.462Z,11.27
2017-04-13T02:20:13.636Z,11.22
2017-04-13T02:20:39.741Z,11.25
2017-04-13T02:21:05.845Z,11.25
2017-04-13T02:21:31.927Z,11.32
2017-04-13T02:21:58.033Z,11.3
2017-04-13T02:22:24.138Z,11.3
2017-04-13T02:22:50.247Z,11.4
2017-04-13T02:23:16.366Z,11.44
2017-04-13T02:23:42.451Z,11.33
2017-04-13T02:24:08.552Z,11.44
2017-04-13T02:24:34.758Z,11.36
2017-04-13T02:25:00.840Z,11.33
2017-04-13T02:25:26.924Z,11.4
2017-04-13T02:25:53.006Z,11.41
2017-04-13T02:26:19.187Z,11.45
2017-04-13T02:26:45.267Z,11.43
2017-04-13T02:27:11.374Z,11.35
2017-04-13T02:27:37.456Z,11.5
2017-04-13T02:28:03.561Z,11.37
2017-04-13T02:28:29.641Z,11.41
2017-04-13T02:28:55.757Z,11.44
2017-04-13T02:29:21.861Z,11.48
2017-04-13T02:29:47.940Z,11.35
2017-04-13T02:30:14.047Z,11.36
2017-04-13T02:30:40.153Z,11.35
2017-04-13T02:31:06.262Z,11.3
2017-04-13T02:31:32.391Z,11.29
2017-04-13T02:31:58.500Z,11.33
2017-04-13T02:32:24.605Z,11.33
2017-04-13T02:32:50.734Z,11.25
2017-04-13T02:33:16.841Z,11.26
2017-04-13T02:33:42.946Z,11.29
2017-04-13T02:34:09.026Z,11.43
2017-04-13T02:34:35.110Z,11.35
2017-04-13T02:35:01.212Z,11.27
2017-04-13T02:35:27.296Z,11.33
2017-04-13T02:35:53.399Z,11.32
2017-04-13T02:36:19.502Z,11.23
2017-04-13T02:36:45.586Z,11.25
2017-04-13T02:37:11.669Z,11.25
2017-04-13T02:37:37.781Z,11.27
2017-04-13T02:38:03.855Z,11.36
2017-04-13T02:38:29.933Z,11.35
2017-04-13T02:38:56.017Z,11.43
2017-04-13T02:39:22.109Z,11.36
2017-04-13T02:39:48.191Z,11.4
2017-04-13T02:40:14.273Z,11.44
2017-04-13T02:40:40.354Z,11.41
2017-04-13T02:41:06.436Z,11.44
2017-04-13T02:41:32.517Z,11.4
2017-04-13T02:41:58.626Z,11.37
2017-04-13T02:42:24.707Z,11.45
2017-04-13T02:42:50.789Z,11.33
2017-04-13T02:43:16.871Z,11.37
2017-04-13T02:43:42.976Z,11.4
2017-04-13T02:44:09.083Z,11.43
2017-04-13T02:44:35.189Z,11.37
2017-04-13T02:45:01.273Z,11.41
2017-04-13T02:45:27.354Z,11.41
2017-04-13T02:45:53.457Z,11.4
2017-04-13T02:46:19.562Z,11.37
2017-04-13T02:46:45.668Z,11.32
2017-04-13T02:47:11.754Z,11.47
2017-04-13T02:47:37.866Z,11.43
2017-04-13T02:48:03.973Z,11.44
2017-04-13T02:48:30.057Z,11.41
2017-04-13T02:48:56.139Z,11.41
2017-04-13T02:49:22.247Z,11.4
2017-04-13T02:49:48.374Z,11.43
2017-04-13T02:50:14.473Z,11.41
2017-04-13T02:50:40.555Z,11.4
2017-04-13T02:51:06.663Z,11.36
2017-04-13T02:51:32.767Z,11.37
2017-04-13T02:51:58.850Z,11.33
2017-04-13T02:52:24.957Z,11.41
2017-04-13T02:52:51.059Z,11.4
2017-04-13T02:53:17.204Z,11.36
2017-04-13T02:53:43.248Z,11.32
2017-04-13T02:54:09.329Z,11.32
2017-04-13T02:54:35.408Z,11.43
2017-04-13T02:55:01.489Z,11.37
2017-04-13T02:55:27.594Z,11.36
2017-04-13T02:55:53.672Z,11.33
2017-04-13T02:56:19.753Z,11.35
2017-04-13T02:56:45.861Z,11.32
2017-04-13T02:57:11.944Z,11.25
2017-04-13T02:57:38.023Z,11.19
2017-04-13T02:58:04.103Z,11.3
2017-04-13T02:58:30.187Z,11.3
2017-04-13T02:58:56.290Z,11.27
2017-04-13T02:59:22.373Z,11.27
2017-04-13T02:59:48.479Z,11.3
2017-04-13T03:00:14.609Z,11.36
2017-04-13T03:00:40.691Z,11.36
2017-04-13T03:01:06.776Z,11.33
2017-04-13T03:01:32.860Z,11.41
2017-04-13T03:01:58.941Z,11.33
2017-04-13T03:02:25.045Z,11.29
2017-04-13T03:02:51.125Z,11.25
2017-04-13T03:03:17.208Z,11.27
2017-04-13T03:03:43.291Z,11.23
2017-04-13T03:04:09.376Z,11.22
2017-04-13T03:04:35.576Z,11.23
2017-04-13T03:05:01.666Z,11.15
2017-04-13T03:05:27.765Z,11.18
2017-04-13T03:05:53.869Z,11.1
2017-04-13T03:06:19.950Z,11.14
2017-04-13T03:06:46.032Z,11.22
2017-04-13T03:07:12.140Z,11.26
2017-04-13T03:07:38.246Z,11.14
2017-04-13T03:08:04.377Z,11.15
2017-04-13T03:08:30.458Z,11.17
2017-04-13T03:08:56.540Z,11.14
2017-04-13T03:09:22.620Z,11.15
2017-04-13T03:09:48.725Z,11.17
2017-04-13T03:10:14.809Z,11.23
2017-04-13T03:10:40.915Z,11.26
2017-04-13T03:11:07.019Z,11.18
2017-04-13T03:11:33.123Z,11.23
2017-04-13T03:11:59.205Z,11.25
2017-04-13T03:12:25.288Z,11.19
2017-04-13T03:12:51.395Z,11.26
2017-04-13T03:13:17.524Z,11.25
2017-04-13T03:13:43.654Z,11.23
2017-04-13T03:14:09.759Z,11.15
2017-04-13T03:14:35.838Z,11.22
2017-04-13T03:15:01.964Z,11.18
2017-04-13T03:15:28.049Z,11.11
2017-04-13T03:15:54.176Z,11.22
2017-04-13T03:16:20.282Z,11.17
2017-04-13T03:16:46.367Z,11.17
2017-04-13T03:17:12.495Z,11.17
2017-04-13T03:17:38.597Z,11.15
2017-04-13T03:18:04.701Z,11.15
2017-04-13T03:18:30.826Z,11.11
2017-04-13T03:18:56.955Z,11.15
2017-04-13T03:19:23.107Z,11.22
2017-04-13T03:19:49.287Z,11.23
2017-04-13T03:20:15.392Z,11.17
2017-04-13T03:20:41.580Z,11.26
2017-04-13T03:21:07.664Z,11.11
2017-04-13T03:21:33.792Z,11.22
2017-04-13T03:21:59.924Z,11.17
2017-04-13T03:22:26.005Z,11.23
2017-04-13T03:22:52.085Z,11.19
2017-04-13T03:23:18.212Z,11.11
2017-04-13T03:23:44.366Z,11.1
2017-04-13T03:24:10.473Z,11.15
2017-04-13T03:24:36.597Z,11.07
2017-04-13T03:25:02.681Z,11.15
2017-04-13T03:25:28.811Z,11.14
2017-04-13T03:25:54.917Z,11.14
2017-04-13T03:26:21.001Z,11.19
2017-04-13T03:26:47.232Z,11.18
2017-04-13T03:27:13.359Z,11.17
2017-04-13T03:27:39.465Z,11.15
2017-04-13T03:28:05.572Z,11.18
2017-04-13T03:28:31.655Z,11.19
2017-04-13T03:28:57.786Z,11.17
2017-04-13T03:29:23.915Z,11.15
2017-04-13T03:29:50.020Z,11.25
2017-04-13T03:30:16.148Z,11.23
2017-04-13T03:30:42.228Z,11.25
2017-04-13T03:31:08.310Z,11.25
2017-04-13T03:31:34.393Z,11.22
2017-04-13T03:32:00.476Z,11.19
2017-04-13T03:32:26.558Z,11.22
2017-04-13T03:32:52.640Z,11.18
2017-04-13T03:33:18.722Z,11.23
2017-04-13T03:33:44.847Z,11.15
2017-04-13T03:34:10.932Z,11.18
2017-04-13T03:34:37.039Z,11.1
2017-04-13T03:35:03.143Z,11.19
2017-04-13T03:35:29.225Z,11.22
2017-04-13T03:35:55.333Z,11.23
2017-04-13T03:36:21.413Z,11.17
2017-04-13T03:36:47.497Z,11.19
2017-04-13T03:37:13.579Z,11.11
2017-04-13T03:37:39.658Z,11.25
2017-04-13T03:38:05.763Z,11.18
2017-04-13T03:38:31.970Z,11.15
2017-04-13T03:38:58.052Z,11.15
2017-04-13T03:39:24.133Z,11.14
2017-04-13T03:39:50.216Z,11.15
2017-04-13T03:40:16.321Z,11.15
2017-04-13T03:40:42.405Z,11.19
2017-04-13T03:41:08.485Z,11.25
2017-04-13T03:41:34.586Z,11.17
2017-04-13T03:42:00.670Z,11.15
2017-04-13T03:42:26.754Z,11.18
2017-04-13T03:42:52.836Z,11.19
2017-04-13T03:43:18.939Z,11.11
2017-04-13T03:43:45.019Z,11.19
2017-04-13T03:44:11.103Z,11.17
2017-04-13T03:44:37.211Z,11.26
2017-04-13T03:45:03.292Z,11.25
2017-04-13T03:45:29.375Z,11.26
2017-04-13T03:45:55.454Z,11.22
2017-04-13T03:46:21.586Z,11.15
2017-04-13T03:46:47.643Z,11.17
2017-04-13T03:47:13.749Z,11.19
2017-04-13T03:47:39.829Z,11.17
2017-04-13T03:48:05.911Z,11.19
2017-04-13T03:48:31.995Z,11.26
2017-04-13T03:48:58.102Z,11.15
2017-04-13T03:49:24.232Z,11.29
2017-04-13T03:49:50.338Z,11.22
2017-04-13T03:50:16.422Z,11.32
2017-04-13T03:50:42.524Z,11.25
2017-04-13T03:51:08.605Z,11.19
2017-04-13T03:51:34.688Z,11.18
2017-04-13T03:52:00.793Z,11.27
2017-04-13T03:52:26.945Z,11.26
2017-04-13T03:52:53.077Z,11.25
2017-04-13T03:53:19.206Z,11.22
2017-04-13T03:53:45.291Z,11.18
2017-04-13T03:54:11.397Z,11.23
2017-04-13T03:54:37.503Z,11.23
2017-04-13T03:55:03.654Z,11.22
2017-04-13T03:55:29.759Z,11.19
2017-04-13T03:55:55.862Z,11.17
2017-04-13T03:56:21.967Z,11.17
2017-04-13T03:56:48.049Z,11.26
2017-04-13T03:57:14.133Z,11.15
2017-04-13T03:57:40.217Z,11.19
2017-04-13T03:58:06.323Z,11.18
2017-04-13T03:58:32.402Z,11.19
2017-04-13T03:58:58.580Z,11.22
2017-04-13T03:59:24.809Z,11.25
2017-04-13T03:59:51.266Z,11.23
2017-04-13T04:00:17.369Z,11.23
2017-04-13T04:00:43.499Z,11.25
2017-04-13T04:01:09.580Z,11.22
2017-04-13T04:01:35.660Z,11.25
2017-04-13T04:02:01.765Z,11.15
2017-04-13T04:02:27.847Z,11.12
2017-04-13T04:02:53.928Z,11.14
2017-04-13T04:03:20.012Z,11.07
2017-04-13T04:03:46.095Z,11.1
2017-04-13T04:04:12.172Z,11.15
2017-04-13T04:04:38.257Z,11.18
2017-04-13T04:05:04.364Z,11.12
2017-04-13T04:05:30.445Z,11.17
2017-04-13T04:05:56.527Z,11.22
2017-04-13T04:06:22.631Z,11.25
2017-04-13T04:06:48.765Z,11.22
2017-04-13T04:07:14.843Z,11.17
2017-04-13T04:07:40.926Z,11.15
2017-04-13T04:08:07.009Z,11.23
2017-04-13T04:08:33.191Z,11.11
2017-04-13T04:08:59.272Z,11.12
2017-04-13T04:09:25.360Z,11.08
2017-04-13T04:09:51.439Z,11.1
2017-04-13T04:10:17.544Z,11.18
2017-04-13T04:10:43.624Z,11.14
2017-04-13T04:11:09.705Z,11.25
2017-04-13T04:11:35.788Z,11.17
2017-04-13T04:12:01.970Z,11.07
2017-04-13T04:12:28.073Z,11.15
2017-04-13T04:12:54.157Z,11.14
2017-04-13T04:13:20.238Z,11.14
2017-04-13T04:13:46.367Z,11.17
2017-04-13T04:14:12.447Z,11.22
2017-04-13T04:14:38.551Z,11.22
2017-04-13T04:15:04.636Z,11.07
2017-04-13T04:15:30.767Z,11.14
2017-04-13T04:15:56.852Z,11.08
2017-04-13T04:16:22.937Z,11.17
2017-04-13T04:16:49.015Z,11.1
2017-04-13T04:17:15.142Z,11.15
2017-04-13T04:17:41.246Z,11.12
2017-04-13T04:18:07.354Z,11.07
2017-04-13T04:18:33.436Z,11.08
2017-04-13T04:18:59.567Z,11.02
2017-04-13T04:19:25.650Z,11.08
2017-04-13T04:19:51.775Z,11.07
2017-04-13T04:20:17.899Z,10.99
2017-04-13T04:20:43.981Z,11
2017-04-13T04:21:10.063Z,11
2017-04-13T04:21:36.197Z,10.99
2017-04-13T04:22:02.320Z,10.92
2017-04-13T04:22:28.399Z,11
2017-04-13T04:22:54.505Z,10.99
2017-04-13T04:23:20.587Z,10.99
2017-04-13T04:23:46.669Z,11
2017-04-13T04:24:12.752Z,10.99
2017-04-13T04:24:38.832Z,10.92
2017-04-13T04:25:04.915Z,10.99
2017-04-13T04:25:31.020Z,10.97
2017-04-13T04:25:57.104Z,11.02
2017-04-13T04:26:23.183Z,11.1
2017-04-13T04:26:49.289Z,11.11
2017-04-13T04:27:15.396Z,11
2017-04-13T04:27:41.573Z,11.07
2017-04-13T04:28:07.655Z,11.04
2017-04-13T04:28:33.738Z,11.11
2017-04-13T04:28:59.822Z,10.99
2017-04-13T04:29:25.905Z,11.02
2017-04-13T04:29:51.985Z,10.97
2017-04-13T04:30:18.066Z,10.99
2017-04-13T04:30:44.173Z,11
2017-04-13T04:31:10.255Z,11
2017-04-13T04:31:36.338Z,10.99
2017-04-13T04:32:02.419Z,10.96
2017-04-13T04:32:28.499Z,10.99
2017-04-13T04:32:54.582Z,11
2017-04-13T04:33:20.766Z,11
2017-04-13T04:33:46.846Z,11
2017-04-13T04:34:12.931Z,10.97
2017-04-13T04:34:39.013Z,11.1
2017-04-13T04:35:05.193Z,11.11
2017-04-13T04:35:31.301Z,11.1
2017-04-13T04:35:57.384Z,11.02
2017-04-13T04:36:23.465Z,10.99
2017-04-13T04:36:49.549Z,11.11
2017-04-13T04:37:15.634Z,11.05
2017-04-13T04:37:41.740Z,11.04
2017-04-13T04:38:07.886Z,10.97
2017-04-13T04:38:33.969Z,10.94
2017-04-13T04:39:00.050Z,11.02
2017-04-13T04:39:26.176Z,10.99
2017-04-13T04:39:52.280Z,11
2017-04-13T04:40:18.363Z,11.07
2017-04-13T04:40:44.447Z,11.04
2017-04-13T04:41:10.552Z,11.11
2017-04-13T04:41:36.636Z,10.99
2017-04-13T04:42:02.741Z,10.99
2017-04-13T04:42:28.819Z,10.97
2017-04-13T04:42:54.901Z,11.11
2017-04-13T04:43:21.010Z,11.08
2017-04-13T04:43:47.090Z,11.11
2017-04-13T04:44:13.171Z,11.1
2017-04-13T04:44:39.252Z,11.02
2017-04-13T04:45:05.334Z,11
2017-04-13T04:45:31.418Z,11.07
2017-04-13T04:45:57.545Z,11
2017-04-13T04:46:23.626Z,11.15
2017-04-13T04:46:49.706Z,11.14
2017-04-13T04:47:15.789Z,11.14
2017-04-13T04:47:41.872Z,11.12
2017-04-13T04:48:07.974Z,11.02
2017-04-13T04:48:34.077Z,11.02
2017-04-13T04:49:00.161Z,11.12
2017-04-13T04:49:26.243Z,11.12
2017-04-13T04:49:52.325Z,11.15
2017-04-13T04:50:18.403Z,11.08
2017-04-13T04:50:44.509Z,11.08
2017-04-13T04:51:10.591Z,11.17
2017-04-13T04:51:36.671Z,11.12
2017-04-13T04:52:02.750Z,11.14
2017-04-13T04:52:28.836Z,11.19
2017-04-13T04:52:54.920Z,11.22
2017-04-13T04:53:21.003Z,11.26
2017-04-13T04:53:47.085Z,11.26
2017-04-13T04:54:13.167Z,11.23
2017-04-13T04:54:39.273Z,11.15
2017-04-13T04:55:05.400Z,11.19
2017-04-13T04:55:31.505Z,11.12
2017-04-13T04:55:57.607Z,11.08
2017-04-13T04:56:23.689Z,11.22
2017-04-13T04:56:49.773Z,11.22
2017-04-13T04:57:15.855Z,11.14
2017-04-13T04:57:41.986Z,11.19
2017-04-13T04:58:08.069Z,11.15
2017-04-13T04:58:34.177Z,11.25
2017-04-13T04:59:00.358Z,11.25
2017-04-13T04:59:26.437Z,11.22
2017-04-13T04:59:52.526Z,11.14
2017-04-13T05:00:18.626Z,11.18
2017-04-13T05:00:44.704Z,11.17
2017-04-13T05:01:10.785Z,11.18
2017-04-13T05:01:36.871Z,11.22
2017-04-13T05:02:02.950Z,11.1
2017-04-13T05:02:29.030Z,11.15
2017-04-13T05:02:55.111Z,11.02
2017-04-13T05:03:21.195Z,11.07
2017-04-13T05:03:47.276Z,11.07
2017-04-13T05:04:13.381Z,11.15
2017-04-13T05:04:39.461Z,11.07
2017-04-13T05:05:05.545Z,11.02
2017-04-13T05:05:31.628Z,11.08
2017-04-13T05:05:57.707Z,11.11
2017-04-13T05:06:23.809Z,11.14
2017-04-13T05:06:49.892Z,10.99
2017-04-13T05:07:15.974Z,11.04
2017-04-13T05:07:42.076Z,11.11
2017-04-13T05:08:08.159Z,11.08
2017-04-13T05:08:34.264Z,11.04
2017-04-13T05:09:00.419Z,11
2017-04-13T05:09:26.523Z,10.99
2017-04-13T05:09:52.608Z,11
2017-04-13T05:10:18.713Z,11.04
2017-04-13T05:10:44.794Z,11
2017-04-13T05:11:10.872Z,10.96
2017-04-13T05:11:36.955Z,10.96
2017-04-13T05:12:03.038Z,10.99
2017-04-13T05:12:29.121Z,10.97
2017-04-13T05:12:55.200Z,11
2017-04-13T05:13:21.283Z,11.04
2017-04-13T05:13:47.365Z,10.9
2017-04-13T05:14:13.546Z,11
2017-04-13T05:14:39.630Z,11.04
2017-04-13T05:15:05.736Z,11.04
2017-04-13T05:15:31.818Z,11.02
2017-04-13T05:15:57.900Z,11
2017-04-13T05:16:23.982Z,10.86
2017-04-13T05:16:50.068Z,11.04
2017-04-13T05:17:16.149Z,10.96
2017-04-13T05:17:42.253Z,10.87
2017-04-13T05:18:08.331Z,10.9
2017-04-13T05:18:34.412Z,10.93
2017-04-13T05:19:00.522Z,10.9
2017-04-13T05:19:26.603Z,10.94
2017-04-13T05:19:52.686Z,10.92
2017-04-13T05:20:18.763Z,11.05
2017-04-13T05:20:44.846Z,10.94
2017-04-13T05:21:10.928Z,11.02
2017-04-13T05:21:37.009Z,11
2017-04-13T05:22:03.089Z,11
2017-04-13T05:22:29.193Z,10.96
2017-04-13T05:22:55.299Z,10.96
2017-04-13T05:23:21.379Z,10.99
2017-04-13T05:23:47.459Z,10.97
2017-04-13T05:24:13.541Z,11.02
2017-04-13T05:24:39.647Z,10.97
2017-04-13T05:25:05.732Z,11.04
2017-04-13T05:25:31.945Z,10.97
2017-04-13T05:25:57.987Z,10.93
2017-04-13T05:26:24.091Z,11.04
2017-04-13T05:26:50.171Z,10.92
2017-04-13T05:27:16.278Z,11
2017-04-13T05:27:42.361Z,10.99
2017-04-13T05:28:08.445Z,11.04
2017-04-13T05:28:34.571Z,10.84
2017-04-13T05:29:00.650Z,10.96
2017-04-13T05:29:26.760Z,11
2017-04-13T05:29:52.844Z,11.05
2017-04-13T05:30:18.985Z,10.9
2017-04-13T05:30:45.065Z,10.99
2017-04-13T05:31:11.192Z,11
2017-04-13T05:31:37.273Z,11.04
2017-04-13T05:32:03.357Z,11.02
2017-04-13T05:32:29.466Z,11.12
2017-04-13T05:32:55.551Z,11.04
2017-04-13T05:33:21.654Z,11.05
2017-04-13T05:33:47.734Z,11
2017-04-13T05:34:13.820Z,10.97
2017-04-13T05:34:39.924Z,11
2017-04-13T05:35:06.007Z,11.05
2017-04-13T05:35:32.089Z,11.07
2017-04-13T05:35:58.169Z,11.04
2017-04-13T05:36:24.273Z,11.1
2017-04-13T05:36:50.355Z,11.15
2017-04-13T05:37:16.461Z,11.14
2017-04-13T05:37:42.542Z,11.11
2017-04-13T05:38:08.644Z,11.14
2017-04-13T05:38:34.749Z,11.15